Time;durP1;ratioP1;P1;durP2;ratioP2;P2;SDS_P1;SDS_P2;PMS_P1;PMS_P2;Temp;Humidity;BMP_temperature;BMP_pressure;BME280_temperature;BME280_humidity;BME280_pressure;Samples;Min_cycle;Max_cycle;Signal;HPM_P1;HPM_P2
2021/09/10 00:00:21;;;;;;;10.00;5.90;;;;;;;;;;5116378;28;20260;-64
2021/09/10 00:02:49;;;;;;;6.60;5.57;;;;;;;;;;5111702;28;20208;-64
2021/09/10 00:05:17;;;;;;;8.77;5.97;;;;;;;;;;5097133;28;20277;-66
2021/09/10 00:07:45;;;;;;;7.13;5.67;;;;;;;;;;5101873;28;20201;-66
2021/09/10 00:10:14;;;;;;;8.90;6.30;;;;;;;;;;5106654;28;20209;-66
2021/09/10 00:12:42;;;;;;;7.97;6.00;;;;;;;;;;5114407;28;20224;-66
2021/09/10 00:15:11;;;;;;;7.63;5.80;;;;;;;;;;5117657;28;20593;-66
2021/09/10 00:17:39;;;;;;;6.37;5.77;;;;;;;;;;5117585;28;20311;-66
2021/09/10 00:20:08;;;;;;;6.97;5.40;;;;;;;;;;5117892;28;20634;-66
2021/09/10 00:22:35;;;;;;;5.47;4.93;;;;;;;;;;5110674;28;20201;-66
2021/09/10 00:25:04;;;;;;;6.57;5.50;;;;;;;;;;5111971;28;20240;-66
2021/09/10 00:27:33;;;;;;;6.83;5.37;;;;;;;;;;5116776;28;20204;-63
2021/09/10 00:30:01;;;;;;;7.30;5.70;;;;;;;;;;5106891;28;20202;-63
2021/09/10 00:32:29;;;;;;;6.63;6.03;;;;;;;;;;5101863;28;20607;-64
2021/09/10 00:34:57;;;;;;;5.70;5.20;;;;;;;;;;5110237;28;20217;-63
2021/09/10 00:37:25;;;;;;;7.23;5.90;;;;;;;;;;5117883;28;20232;-63
2021/09/10 00:39:53;;;;;;;9.83;6.00;;;;;;;;;;5117404;28;20205;-63
2021/09/10 00:42:21;;;;;;;7.77;5.40;;;;;;;;;;5116222;28;20229;-63
2021/09/10 00:44:51;;;;;;;9.73;6.10;;;;;;;;;;5117934;28;20311;-63
2021/09/10 00:47:19;;;;;;;7.10;5.97;;;;;;;;;;5116502;28;20535;-63
2021/09/10 00:49:47;;;;;;;8.90;7.13;;;;;;;;;;5117783;28;20727;-64
2021/09/10 00:52:15;;;;;;;7.77;6.00;;;;;;;;;;5115777;28;20238;-65
2021/09/10 00:54:43;;;;;;;9.27;5.77;;;;;;;;;;5116751;28;20226;-64
2021/09/10 00:57:11;;;;;;;6.37;5.77;;;;;;;;;;5117022;28;20197;-63
2021/09/10 00:59:39;;;;;;;8.63;6.43;;;;;;;;;;5114903;28;20231;-63
2021/09/10 01:02:08;;;;;;;8.07;7.00;;;;;;;;;;5115413;28;20209;-64
2021/09/10 01:04:36;;;;;;;7.73;5.87;;;;;;;;;;5122754;28;20255;-63
2021/09/10 01:07:05;;;;;;;6.30;5.43;;;;;;;;;;5124463;27;20204;-63
2021/09/10 01:09:33;;;;;;;6.17;5.57;;;;;;;;;;5126373;28;20269;-63
2021/09/10 01:12:01;;;;;;;7.40;5.57;;;;;;;;;;5122178;28;20727;-63
2021/09/10 01:14:30;;;;;;;7.27;5.67;;;;;;;;;;5121159;28;20736;-63
2021/09/10 01:16:58;;;;;;;7.03;5.50;;;;;;;;;;5124028;28;20249;-63
2021/09/10 01:19:28;;;;;;;6.97;5.60;;;;;;;;;;5122572;28;20201;-62
2021/09/10 01:21:57;;;;;;;7.80;5.37;;;;;;;;;;5125746;28;20675;-65
2021/09/10 01:24:27;;;;;;;7.60;5.80;;;;;;;;;;5124976;27;20218;-65
2021/09/10 01:26:56;;;;;;;10.27;6.40;;;;;;;;;;5106658;28;20202;-65
2021/09/10 01:29:24;;;;;;;7.60;5.93;;;;;;;;;;5103983;28;20207;-65
2021/09/10 01:31:52;;;;;;;7.30;5.77;;;;;;;;;;5105003;28;20218;-65
2021/09/10 01:34:21;;;;;;;7.93;6.17;;;;;;;;;;5106527;28;20221;-63
2021/09/10 01:36:49;;;;;;;7.57;5.77;;;;;;;;;;5108119;28;20203;-62
2021/09/10 01:39:17;;;;;;;9.77;5.60;;;;;;;;;;5124453;27;20199;-65
2021/09/10 01:41:47;;;;;;;6.47;5.47;;;;;;;;;;5130481;27;20192;-63
2021/09/10 01:44:16;;;;;;;7.97;6.13;;;;;;;;;;5119665;28;20231;-62
2021/09/10 01:46:44;;;;;;;6.97;6.27;;;;;;;;;;5135669;27;20192;-66
2021/09/10 01:49:12;;;;;;;8.27;5.67;;;;;;;;;;5128556;27;20666;-64
2021/09/10 01:51:40;;;;;;;6.53;5.80;;;;;;;;;;5129804;27;20302;-64
2021/09/10 01:54:08;;;;;;;6.47;5.87;;;;;;;;;;5127414;27;20225;-65
2021/09/10 01:56:36;;;;;;;7.70;5.87;;;;;;;;;;5125396;27;20690;-66
2021/09/10 01:59:05;;;;;;;8.00;6.13;;;;;;;;;;5127332;27;20196;-64
2021/09/10 02:01:34;;;;;;;5.83;5.17;;;;;;;;;;5125361;27;20197;-66
2021/09/10 02:04:03;;;;;;;7.67;6.90;;;;;;;;;;5120941;27;20757;-66
2021/09/10 02:06:31;;;;;;;8.50;6.73;;;;;;;;;;5130988;27;20583;-64
2021/09/10 02:08:59;;;;;;;9.10;6.50;;;;;;;;;;5126633;27;20231;-64
2021/09/10 02:11:27;;;;;;;8.97;6.63;;;;;;;;;;5127228;27;20287;-64
2021/09/10 02:13:56;;;;;;;7.90;6.03;;;;;;;;;;5129317;27;20706;-66
2021/09/10 02:16:26;;;;;;;7.47;6.30;;;;;;;;;;5122563;27;20204;-64
2021/09/10 02:18:54;;;;;;;8.70;6.57;;;;;;;;;;5113491;28;20212;-64
2021/09/10 02:21:22;;;;;;;7.67;6.10;;;;;;;;;;5117173;28;20292;-64
2021/09/10 02:23:50;;;;;;;7.67;6.23;;;;;;;;;;5117108;28;20839;-66
2021/09/10 02:26:18;;;;;;;8.07;6.23;;;;;;;;;;5118090;28;20232;-63
2021/09/10 02:28:46;;;;;;;7.53;6.47;;;;;;;;;;5117200;28;20214;-66
2021/09/10 02:31:14;;;;;;;6.87;6.00;;;;;;;;;;5105238;28;20200;-66
2021/09/10 02:33:44;;;;;;;9.67;7.10;;;;;;;;;;5108536;28;20246;-64
2021/09/10 02:36:12;;;;;;;7.07;6.37;;;;;;;;;;5115759;28;20208;-64
2021/09/10 02:38:40;;;;;;;8.57;6.70;;;;;;;;;;5118600;28;20201;-64
2021/09/10 02:41:08;;;;;;;8.03;6.33;;;;;;;;;;5119250;28;20263;-66
2021/09/10 02:43:36;;;;;;;8.13;6.60;;;;;;;;;;5118703;28;20197;-66
2021/09/10 02:46:03;;;;;;;7.53;6.40;;;;;;;;;;5119440;28;20269;-63
2021/09/10 02:48:32;;;;;;;8.13;6.63;;;;;;;;;;5118536;28;20242;-66
2021/09/10 02:51:02;;;;;;;8.73;6.53;;;;;;;;;;5119755;28;20211;-64
2021/09/10 02:53:30;;;;;;;6.87;6.17;;;;;;;;;;5117417;28;20221;-64
2021/09/10 02:56:00;;;;;;;9.17;6.53;;;;;;;;;;5119740;27;20231;-64
2021/09/10 02:58:28;;;;;;;10.77;6.63;;;;;;;;;;5114405;28;20282;-64
2021/09/10 03:00:59;;;;;;;10.43;6.77;;;;;;;;;;5119047;28;20207;-63
2021/09/10 03:03:29;;;;;;;9.03;7.20;;;;;;;;;;5115401;28;20201;-64
2021/09/10 03:05:58;;;;;;;7.53;6.67;;;;;;;;;;5118089;28;20201;-64
2021/09/10 03:08:27;;;;;;;8.37;7.10;;;;;;;;;;5118396;28;20702;-64
2021/09/10 03:10:55;;;;;;;10.83;7.20;;;;;;;;;;5119457;28;20210;-64
2021/09/10 03:13:23;;;;;;;7.50;6.67;;;;;;;;;;5116804;28;20221;-64
2021/09/10 03:15:51;;;;;;;7.97;7.00;;;;;;;;;;5118733;28;20204;-64
2021/09/10 03:18:19;;;;;;;9.90;7.03;;;;;;;;;;5117502;28;20197;-63
2021/09/10 03:20:47;;;;;;;8.40;6.77;;;;;;;;;;5119285;28;20657;-64
2021/09/10 03:23:15;;;;;;;7.90;7.10;;;;;;;;;;5116808;28;20561;-64
2021/09/10 03:25:45;;;;;;;7.93;7.13;;;;;;;;;;5118665;28;20237;-65
2021/09/10 03:28:13;;;;;;;7.40;6.70;;;;;;;;;;5118050;28;20564;-64
2021/09/10 03:30:41;;;;;;;8.73;7.07;;;;;;;;;;5118761;28;20204;-65
2021/09/10 03:33:09;;;;;;;8.27;6.93;;;;;;;;;;5113960;28;20246;-64
2021/09/10 03:35:37;;;;;;;10.83;7.77;;;;;;;;;;5117043;28;20229;-67
2021/09/10 03:38:05;;;;;;;9.50;7.03;;;;;;;;;;5103510;28;20200;-64
2021/09/10 03:40:35;;;;;;;9.23;7.23;;;;;;;;;;5118963;28;20218;-64
2021/09/10 03:43:05;;;;;;;8.30;6.77;;;;;;;;;;5116185;28;20658;-64
2021/09/10 03:45:34;;;;;;;7.27;6.57;;;;;;;;;;5117124;28;20228;-64
2021/09/10 03:48:02;;;;;;;7.07;6.37;;;;;;;;;;5118768;28;20210;-65
2021/09/10 03:50:30;;;;;;;11.23;7.10;;;;;;;;;;5117524;28;20196;-65
2021/09/10 03:52:58;;;;;;;10.17;7.27;;;;;;;;;;5116298;28;20224;-65
2021/09/10 03:55:26;;;;;;;8.03;7.13;;;;;;;;;;5117178;28;20711;-65
2021/09/10 03:57:54;;;;;;;7.70;7.00;;;;;;;;;;5116874;28;20208;-63
2021/09/10 04:00:23;;;;;;;8.20;6.47;;;;;;;;;;5117175;28;20203;-65
2021/09/10 04:02:51;;;;;;;8.80;7.20;;;;;;;;;;5108819;28;22185;-65
2021/09/10 04:05:20;;;;;;;8.23;7.23;;;;;;;;;;5115369;28;20247;-65
2021/09/10 04:07:47;;;;;;;7.40;6.70;;;;;;;;;;5118405;28;20207;-64
2021/09/10 04:10:15;;;;;;;10.17;7.63;;;;;;;;;;5103936;28;20208;-65
2021/09/10 04:12:43;;;;;;;8.20;7.20;;;;;;;;;;5116831;28;20207;-64
2021/09/10 04:15:11;;;;;;;7.77;6.97;;;;;;;;;;5117699;28;20312;-64
2021/09/10 04:17:41;;;;;;;8.03;6.60;;;;;;;;;;5110128;28;20660;-64
2021/09/10 04:20:12;;;;;;;8.40;6.97;;;;;;;;;;5112970;28;20223;-64
2021/09/10 04:22:40;;;;;;;9.70;6.90;;;;;;;;;;5115833;28;20201;-64
2021/09/10 04:25:08;;;;;;;9.40;6.80;;;;;;;;;;5117521;28;20250;-64
2021/09/10 04:27:36;;;;;;;7.43;6.70;;;;;;;;;;5117057;28;20590;-64
2021/09/10 04:30:04;;;;;;;11.17;6.40;;;;;;;;;;5118034;28;20687;-63
2021/09/10 04:32:32;;;;;;;7.63;6.80;;;;;;;;;;5117041;28;20283;-64
2021/09/10 04:35:02;;;;;;;7.40;6.70;;;;;;;;;;5103737;28;20221;-64
2021/09/10 04:37:30;;;;;;;9.73;7.80;;;;;;;;;;5108018;28;20204;-64
2021/09/10 04:39:58;;;;;;;6.97;6.27;;;;;;;;;;5118181;28;20284;-64
2021/09/10 04:42:26;;;;;;;8.00;6.57;;;;;;;;;;5106536;28;20265;-64
2021/09/10 04:44:54;;;;;;;7.33;6.60;;;;;;;;;;5115364;28;20565;-64
2021/09/10 04:47:22;;;;;;;10.53;6.93;;;;;;;;;;5116432;28;20197;-64
2021/09/10 04:49:50;;;;;;;13.40;9.27;;;;;;;;;;5114987;28;20204;-63
2021/09/10 04:52:19;;;;;;;11.70;8.90;;;;;;;;;;5115190;28;20223;-64
2021/09/10 04:54:47;;;;;;;9.63;8.73;;;;;;;;;;5115589;28;20232;-63
2021/09/10 04:57:15;;;;;;;11.83;8.87;;;;;;;;;;5103514;28;20201;-64
2021/09/10 04:59:43;;;;;;;10.70;9.60;;;;;;;;;;5115831;28;20211;-63
2021/09/10 05:02:11;;;;;;;15.83;9.03;;;;;;;;;;5107539;28;20200;-63
2021/09/10 05:04:40;;;;;;;10.40;9.33;;;;;;;;;;5111826;28;20695;-62
2021/09/10 05:07:08;;;;;;;11.63;9.30;;;;;;;;;;5113688;28;20199;-63
2021/09/10 05:09:37;;;;;;;10.63;9.60;;;;;;;;;;5121186;28;20662;-62
2021/09/10 05:12:06;;;;;;;12.20;10.20;;;;;;;;;;5118268;27;20199;-63
2021/09/10 05:14:34;;;;;;;16.27;11.13;;;;;;;;;;5112132;28;20234;-63
2021/09/10 05:17:02;;;;;;;12.73;10.53;;;;;;;;;;5109114;28;20210;-63
2021/09/10 05:19:30;;;;;;;11.77;10.50;;;;;;;;;;5115681;28;20199;-63
2021/09/10 05:21:58;;;;;;;13.43;11.20;;;;;;;;;;5118191;28;20205;-63
2021/09/10 05:24:26;;;;;;;13.83;10.63;;;;;;;;;;5116026;28;20316;-63
2021/09/10 05:26:55;;;;;;;13.13;10.97;;;;;;;;;;5115215;28;20251;-63
2021/09/10 05:29:23;;;;;;;15.10;11.30;;;;;;;;;;5115555;28;20297;-63
2021/09/10 05:31:51;;;;;;;18.10;12.20;;;;;;;;;;5118862;28;20210;-63
2021/09/10 05:34:19;;;;;;;14.20;12.00;;;;;;;;;;5113919;28;20599;-63
2021/09/10 05:36:47;;;;;;;14.87;11.90;;;;;;;;;;5108113;27;20203;-63
2021/09/10 05:39:15;;;;;;;13.17;11.70;;;;;;;;;;5119246;28;20206;-64
2021/09/10 05:41:43;;;;;;;13.17;10.97;;;;;;;;;;5119894;28;20263;-62
2021/09/10 05:44:14;;;;;;;15.23;11.97;;;;;;;;;;5117731;28;20219;-63
2021/09/10 05:46:42;;;;;;;15.27;10.87;;;;;;;;;;5118824;28;20221;-63
2021/09/10 05:49:10;;;;;;;14.17;10.97;;;;;;;;;;5120200;28;20227;-63
2021/09/10 05:51:38;;;;;;;14.03;11.13;;;;;;;;;;5117233;28;20256;-63
2021/09/10 05:54:06;;;;;;;13.97;10.47;;;;;;;;;;5112881;28;20221;-62
2021/09/10 05:56:37;;;;;;;14.17;11.73;;;;;;;;;;5119543;28;20232;-62
2021/09/10 05:59:05;;;;;;;14.20;10.87;;;;;;;;;;5118238;28;20209;-62
2021/09/10 06:01:34;;;;;;;13.20;11.30;;;;;;;;;;5119220;28;20211;-62
2021/09/10 06:04:03;;;;;;;13.63;11.17;;;;;;;;;;5118389;28;20312;-62
2021/09/10 06:06:32;;;;;;;11.83;10.63;;;;;;;;;;5118427;28;20209;-62
2021/09/10 06:09:00;;;;;;;13.10;10.57;;;;;;;;;;5117567;28;20206;-62
2021/09/10 06:11:28;;;;;;;18.20;10.43;;;;;;;;;;5114692;28;20211;-62
2021/09/10 06:13:56;;;;;;;15.03;11.57;;;;;;;;;;5119404;28;20222;-61
2021/09/10 06:16:25;;;;;;;15.67;11.37;;;;;;;;;;5119107;28;20218;-62
2021/09/10 06:18:54;;;;;;;17.43;10.17;;;;;;;;;;5119199;28;20225;-61
2021/09/10 06:21:22;;;;;;;12.67;10.87;;;;;;;;;;5119345;28;20226;-62
2021/09/10 06:23:51;;;;;;;15.60;11.70;;;;;;;;;;5117335;28;20254;-62
2021/09/10 06:26:22;;;;;;;14.40;11.27;;;;;;;;;;5115300;28;20242;-62
2021/09/10 06:28:50;;;;;;;15.20;11.50;;;;;;;;;;5119641;28;20716;-62
2021/09/10 06:31:18;;;;;;;13.70;11.67;;;;;;;;;;5115377;27;20287;-63
2021/09/10 06:33:46;;;;;;;15.23;12.07;;;;;;;;;;5126607;27;20241;-62
2021/09/10 06:36:16;;;;;;;15.10;11.53;;;;;;;;;;5127278;27;20231;-62
2021/09/10 06:38:48;;;;;;;15.67;11.03;;;;;;;;;;5124877;27;20232;-62
2021/09/10 06:41:16;;;;;;;12.97;11.67;;;;;;;;;;5122608;27;20741;-61
2021/09/10 06:43:44;;;;;;;14.33;11.53;;;;;;;;;;5123376;27;20229;-61
2021/09/10 06:46:12;;;;;;;16.17;10.97;;;;;;;;;;5125833;27;20207;-61
2021/09/10 06:48:40;;;;;;;14.23;11.03;;;;;;;;;;5117979;27;20714;-61
2021/09/10 06:51:09;;;;;;;17.13;11.03;;;;;;;;;;5120457;27;20210;-61
2021/09/10 06:53:38;;;;;;;16.83;11.47;;;;;;;;;;5118887;28;20627;-62
2021/09/10 06:56:06;;;;;;;13.67;11.30;;;;;;;;;;5118561;28;20311;-62
2021/09/10 06:58:34;;;;;;;13.23;11.43;;;;;;;;;;5115130;28;20716;-62
2021/09/10 07:01:06;;;;;;;17.03;12.20;;;;;;;;;;5118375;28;20221;-61
2021/09/10 07:03:35;;;;;;;17.43;12.00;;;;;;;;;;5117767;28;20232;-61
2021/09/10 07:06:04;;;;;;;19.10;11.57;;;;;;;;;;5118969;28;20284;-61
2021/09/10 07:08:32;;;;;;;16.07;11.40;;;;;;;;;;5120310;27;20208;-62
2021/09/10 07:11:03;;;;;;;13.63;10.83;;;;;;;;;;5125831;27;20661;-61
2021/09/10 07:13:31;;;;;;;16.60;11.57;;;;;;;;;;5126052;27;20202;-60
2021/09/10 07:16:00;;;;;;;14.30;11.03;;;;;;;;;;5113273;28;20262;-62
2021/09/10 07:18:28;;;;;;;15.00;10.73;;;;;;;;;;5117981;28;20203;-61
2021/09/10 07:20:56;;;;;;;15.53;12.90;;;;;;;;;;5118750;28;20206;-61
2021/09/10 07:23:24;;;;;;;13.57;10.43;;;;;;;;;;5118142;28;20209;-63
2021/09/10 07:25:52;;;;;;;14.30;11.70;;;;;;;;;;5116281;27;20238;-61
2021/09/10 07:28:22;;;;;;;14.53;10.80;;;;;;;;;;5122951;27;20285;-68
2021/09/10 07:30:50;;;;;;;11.70;9.80;;;;;;;;;;5118296;27;20288;-66
2021/09/10 07:33:17;;;;;;;13.43;11.17;;;;;;;;;;5115220;27;20267;-67
2021/09/10 07:35:45;;;;;;;18.67;11.43;;;;;;;;;;5116977;28;20255;-67
2021/09/10 07:38:13;;;;;;;14.43;10.47;;;;;;;;;;5118027;28;20216;-67
2021/09/10 07:40:41;;;;;;;14.40;11.77;;;;;;;;;;5118342;28;20216;-61
2021/09/10 07:43:10;;;;;;;17.17;11.70;;;;;;;;;;5117677;28;20260;-62
2021/09/10 07:45:40;;;;;;;15.47;10.60;;;;;;;;;;5117799;28;20237;-61
2021/09/10 07:48:09;;;;;;;12.17;10.40;;;;;;;;;;5109729;28;20212;-62
2021/09/10 07:50:37;;;;;;;14.20;10.17;;;;;;;;;;5116525;28;20216;-62
2021/09/10 07:53:05;;;;;;;12.93;10.63;;;;;;;;;;5117827;28;20262;-62
2021/09/10 07:55:33;;;;;;;13.03;10.97;;;;;;;;;;5114640;28;20238;-62
2021/09/10 07:58:03;;;;;;;12.97;10.30;;;;;;;;;;5117489;28;20235;-62
2021/09/10 08:00:31;;;;;;;13.83;10.73;;;;;;;;;;5117437;28;20247;-61
2021/09/10 08:03:01;;;;;;;12.87;9.80;;;;;;;;;;5126693;27;20275;-61
2021/09/10 08:05:29;;;;;;;14.50;11.20;;;;;;;;;;5125457;27;20231;-61
2021/09/10 08:07:57;;;;;;;12.30;10.33;;;;;;;;;;5120323;27;20198;-61
2021/09/10 08:10:25;;;;;;;14.17;10.00;;;;;;;;;;5118885;27;20740;-61
2021/09/10 08:12:53;;;;;;;13.63;10.53;;;;;;;;;;5122027;27;20291;-60
2021/09/10 08:15:21;;;;;;;11.53;9.73;;;;;;;;;;5123867;27;20233;-59
2021/09/10 08:17:50;;;;;;;11.77;9.53;;;;;;;;;;5117678;28;20237;-63
2021/09/10 08:20:19;;;;;;;12.00;9.63;;;;;;;;;;5116980;28;20289;-62
2021/09/10 08:22:48;;;;;;;12.10;9.50;;;;;;;;;;5117821;28;20248;-62
2021/09/10 08:25:16;;;;;;;13.77;10.27;;;;;;;;;;5115252;28;20238;-63
2021/09/10 08:27:45;;;;;;;11.30;8.93;;;;;;;;;;5112256;28;20216;-63
2021/09/10 08:30:13;;;;;;;11.43;8.90;;;;;;;;;;5115205;28;20652;-62
2021/09/10 08:32:42;;;;;;;11.13;8.97;;;;;;;;;;5117516;28;20210;-61
2021/09/10 08:35:10;;;;;;;11.07;8.73;;;;;;;;;;5117394;28;20229;-60
2021/09/10 08:37:40;;;;;;;11.47;9.17;;;;;;;;;;5117520;28;20262;-61
2021/09/10 08:40:08;;;;;;;12.43;8.80;;;;;;;;;;5118237;28;20197;-63
2021/09/10 08:42:36;;;;;;;11.87;9.00;;;;;;;;;;5122962;27;20199;-63
2021/09/10 08:45:09;;;;;;;12.53;10.47;;;;;;;;;;5125680;27;20321;-61
2021/09/10 08:47:39;;;;;;;12.53;9.83;;;;;;;;;;5123435;27;20211;-61
2021/09/10 08:50:07;;;;;;;11.67;9.63;;;;;;;;;;5125234;27;20276;-61
2021/09/10 08:52:36;;;;;;;11.40;9.50;;;;;;;;;;5125357;27;20197;-61
2021/09/10 08:55:07;;;;;;;11.83;9.47;;;;;;;;;;5121209;28;20290;-61
2021/09/10 08:57:36;;;;;;;15.83;11.03;;;;;;;;;;5118610;28;20810;-61
2021/09/10 09:00:08;;;;;;;15.40;10.37;;;;;;;;;;5121208;28;20220;-61
2021/09/10 09:02:36;;;;;;;16.97;10.47;;;;;;;;;;5121119;28;20288;-60
2021/09/10 09:05:05;;;;;;;17.53;11.53;;;;;;;;;;5121128;28;20235;-62
2021/09/10 09:07:34;;;;;;;11.60;10.40;;;;;;;;;;5121316;28;20232;-60
2021/09/10 09:10:02;;;;;;;14.07;10.83;;;;;;;;;;5121085;28;20201;-60
2021/09/10 09:12:33;;;;;;;13.23;9.73;;;;;;;;;;5121235;27;20232;-61
2021/09/10 09:15:02;;;;;;;10.77;9.13;;;;;;;;;;5116909;28;20304;-63
2021/09/10 09:17:31;;;;;;;12.43;9.33;;;;;;;;;;5120520;28;20684;-63
2021/09/10 09:20:19;;;;;;;12.93;9.93;;;;;;;;;;5120689;28;20206;-63
2021/09/10 09:22:58;;;;;;;10.40;8.43;;;;;;;;;;5119930;28;20561;-63
2021/09/10 09:25:27;;;;;;;9.40;8.07;;;;;;;;;;5120171;28;20237;-63
2021/09/10 09:27:57;;;;;;;11.67;8.47;;;;;;;;;;5112605;28;20211;-63
2021/09/10 09:30:37;;;;;;;9.90;8.90;;;;;;;;;;5120359;28;20577;-63
2021/09/10 09:33:06;;;;;;;12.93;9.23;;;;;;;;;;5114415;28;20201;-62
2021/09/10 09:35:35;;;;;;;10.27;8.50;;;;;;;;;;5120066;28;20227;-61
2021/09/10 09:38:11;;;;;;;14.13;8.80;;;;;;;;;;5120617;28;20205;-63
2021/09/10 09:40:39;;;;;;;11.40;9.70;;;;;;;;;;5120164;28;20204;-61
2021/09/10 09:43:14;;;;;;;10.53;8.53;;;;;;;;;;5120282;28;20212;-61
2021/09/10 09:45:42;;;;;;;12.97;9.23;;;;;;;;;;5118941;28;20228;-61
2021/09/10 09:48:11;;;;;;;13.60;9.40;;;;;;;;;;5118091;28;20197;-61
2021/09/10 09:50:40;;;;;;;10.97;9.23;;;;;;;;;;5119321;28;20258;-62
2021/09/10 09:53:08;;;;;;;10.20;9.13;;;;;;;;;;5119555;28;20204;-63
2021/09/10 09:55:36;;;;;;;13.07;9.30;;;;;;;;;;5119895;28;20229;-63
2021/09/10 09:58:05;;;;;;;12.97;9.00;;;;;;;;;;5119932;28;20209;-64
2021/09/10 10:00:36;;;;;;;15.93;9.50;;;;;;;;;;5119527;28;20245;-63
2021/09/10 10:03:05;;;;;;;13.07;10.00;;;;;;;;;;5116588;28;20204;-63
2021/09/10 10:05:35;;;;;;;13.90;9.70;;;;;;;;;;5106492;28;20221;-63
2021/09/10 10:08:05;;;;;;;14.33;11.70;;;;;;;;;;5119302;28;20647;-63
2021/09/10 10:10:35;;;;;;;12.77;10.03;;;;;;;;;;5117755;28;20197;-62
2021/09/10 10:13:06;;;;;;;12.03;10.77;;;;;;;;;;5108948;28;20215;-62
2021/09/10 10:15:42;;;;;;;18.67;13.10;;;;;;;;;;5112449;28;20227;-62
2021/09/10 10:18:10;;;;;;;12.07;10.73;;;;;;;;;;5115142;28;20243;-64
2021/09/10 10:20:48;;;;;;;16.50;12.20;;;;;;;;;;5105745;28;20852;-64
2021/09/10 10:23:34;;;;;;;11.70;9.97;;;;;;;;;;5119174;28;20291;-65
2021/09/10 10:26:06;;;;;;;13.63;9.73;;;;;;;;;;5105693;27;20703;-64
2021/09/10 10:28:42;;;;;;;9.93;8.93;;;;;;;;;;5109470;28;20202;-64
2021/09/10 10:31:11;;;;;;;14.83;10.73;;;;;;;;;;5100842;28;20210;-63
2021/09/10 10:33:48;;;;;;;11.03;9.97;;;;;;;;;;5110758;27;20201;-64
2021/09/10 10:36:32;;;;;;;11.10;8.90;;;;;;;;;;5098262;28;20207;-63
2021/09/10 10:39:16;;;;;;;16.93;10.53;;;;;;;;;;5106645;28;20204;-64
2021/09/10 10:41:45;;;;;;;15.50;10.00;;;;;;;;;;5105575;28;20231;-63
2021/09/10 10:44:31;;;;;;;17.07;10.97;;;;;;;;;;5116238;28;20228;-63
2021/09/10 10:47:05;;;;;;;16.53;10.60;;;;;;;;;;5101841;28;20190;-63
2021/09/10 10:49:33;;;;;;;17.23;10.53;;;;;;;;;;5111065;28;20208;-63
2021/09/10 10:52:01;;;;;;;12.90;10.53;;;;;;;;;;5119703;28;20268;-63
2021/09/10 10:54:30;;;;;;;12.70;10.60;;;;;;;;;;5116354;28;20663;-65
2021/09/10 10:56:59;;;;;;;12.60;10.03;;;;;;;;;;5119680;28;20264;-65
2021/09/10 10:59:31;;;;;;;12.10;10.60;;;;;;;;;;5110151;28;20255;-64
2021/09/10 11:02:19;;;;;;;14.70;9.97;;;;;;;;;;5111574;28;20288;-63
2021/09/10 11:04:49;;;;;;;13.33;9.20;;;;;;;;;;5110088;27;20227;-65
2021/09/10 11:07:20;;;;;;;10.67;9.37;;;;;;;;;;5105966;28;20211;-65
2021/09/10 11:09:57;;;;;;;14.33;9.57;;;;;;;;;;5118462;28;20211;-65
2021/09/10 11:12:25;;;;;;;13.73;9.23;;;;;;;;;;5107785;28;20208;-64
2021/09/10 11:14:53;;;;;;;12.27;10.07;;;;;;;;;;5117114;28;20229;-65
2021/09/10 11:17:26;;;;;;;10.10;9.03;;;;;;;;;;5113910;28;20231;-65
2021/09/10 11:19:56;;;;;;;11.03;9.40;;;;;;;;;;5119103;28;20216;-64
2021/09/10 11:22:24;;;;;;;11.40;9.00;;;;;;;;;;5118308;28;20196;-65
2021/09/10 11:25:04;;;;;;;10.80;9.30;;;;;;;;;;5118634;28;20315;-62
2021/09/10 11:27:38;;;;;;;10.53;9.17;;;;;;;;;;5115596;28;20201;-65
2021/09/10 11:30:06;;;;;;;11.17;9.13;;;;;;;;;;5116416;28;20280;-62
2021/09/10 11:32:34;;;;;;;11.30;8.50;;;;;;;;;;5117534;28;20208;-64
2021/09/10 11:35:15;;;;;;;11.33;8.63;;;;;;;;;;5118835;28;20288;-64
2021/09/10 11:37:51;;;;;;;11.43;8.83;;;;;;;;;;5116719;28;20292;-64
2021/09/10 11:40:28;;;;;;;12.50;8.50;;;;;;;;;;5118484;28;20245;-64
2021/09/10 11:43:01;;;;;;;11.50;8.33;;;;;;;;;;5117432;28;20204;-64
2021/09/10 11:45:30;;;;;;;11.67;8.60;;;;;;;;;;5118031;28;20580;-64
2021/09/10 11:47:58;;;;;;;11.77;9.20;;;;;;;;;;5114744;28;20197;-64
2021/09/10 11:50:27;;;;;;;10.60;9.00;;;;;;;;;;5118297;28;20205;-64
2021/09/10 11:52:55;;;;;;;11.97;8.43;;;;;;;;;;5111999;28;20200;-62
2021/09/10 11:55:24;;;;;;;10.07;8.23;;;;;;;;;;5103824;28;20688;-64
2021/09/10 11:58:10;;;;;;;11.57;8.53;;;;;;;;;;5104321;28;20217;-62
2021/09/10 12:00:38;;;;;;;10.30;8.03;;;;;;;;;;5104040;28;20201;-62
2021/09/10 12:03:07;;;;;;;11.80;7.00;;;;;;;;;;5118392;28;20244;-62
2021/09/10 12:05:37;;;;;;;8.07;7.00;;;;;;;;;;5115024;28;20221;-62
2021/09/10 12:08:11;;;;;;;10.10;7.77;;;;;;;;;;5105651;28;20260;-62
2021/09/10 12:10:42;;;;;;;11.47;7.83;;;;;;;;;;5117152;28;20205;-62
2021/09/10 12:13:11;;;;;;;10.30;8.37;;;;;;;;;;5116026;28;20229;-62
2021/09/10 12:15:39;;;;;;;10.63;7.87;;;;;;;;;;5116733;28;20280;-64
2021/09/10 12:18:09;;;;;;;8.83;7.03;;;;;;;;;;5117090;28;20308;-62
2021/09/10 12:20:39;;;;;;;8.20;6.77;;;;;;;;;;5110977;28;20207;-63
2021/09/10 12:23:07;;;;;;;10.83;7.47;;;;;;;;;;5111729;28;20204;-63
2021/09/10 12:25:49;;;;;;;9.37;7.37;;;;;;;;;;5117515;28;20270;-63
2021/09/10 12:28:23;;;;;;;9.43;7.37;;;;;;;;;;5105023;28;20211;-63
2021/09/10 12:30:56;;;;;;;8.80;7.90;;;;;;;;;;5103182;28;20208;-62
2021/09/10 12:33:25;;;;;;;8.90;7.67;;;;;;;;;;5117066;28;20733;-63
2021/09/10 12:35:55;;;;;;;10.13;7.23;;;;;;;;;;5117061;28;20301;-64
2021/09/10 12:38:24;;;;;;;7.50;6.47;;;;;;;;;;5117092;28;20227;-63
2021/09/10 12:40:53;;;;;;;10.23;7.13;;;;;;;;;;5118072;28;20206;-62
2021/09/10 12:43:22;;;;;;;12.47;7.17;;;;;;;;;;5115303;28;20199;-62
2021/09/10 12:45:50;;;;;;;10.67;8.50;;;;;;;;;;5116686;28;20290;-63
2021/09/10 12:48:18;;;;;;;11.90;7.40;;;;;;;;;;5116732;28;20203;-63
2021/09/10 12:50:46;;;;;;;7.63;6.37;;;;;;;;;;5117648;28;20670;-63
2021/09/10 12:53:16;;;;;;;7.73;6.53;;;;;;;;;;5116838;28;20213;-62
2021/09/10 12:55:44;;;;;;;8.00;7.20;;;;;;;;;;5105288;28;20222;-62
2021/09/10 12:58:13;;;;;;;10.10;6.67;;;;;;;;;;5116059;28;20651;-63
2021/09/10 13:00:42;;;;;;;10.20;7.50;;;;;;;;;;5104284;28;20286;-64
2021/09/10 13:03:11;;;;;;;11.30;7.27;;;;;;;;;;5097356;28;20733;-63
2021/09/10 13:05:40;;;;;;;12.17;7.90;;;;;;;;;;5117700;28;20229;-64
2021/09/10 13:08:09;;;;;;;10.90;7.50;;;;;;;;;;5116540;28;20203;-63
2021/09/10 13:10:38;;;;;;;9.57;7.27;;;;;;;;;;5117637;28;20232;-63
2021/09/10 13:13:20;;;;;;;7.33;6.63;;;;;;;;;;5116079;28;20291;-63
2021/09/10 13:15:48;;;;;;;7.10;6.40;;;;;;;;;;5117262;28;20225;-65
2021/09/10 13:18:16;;;;;;;8.03;6.77;;;;;;;;;;5111853;28;20755;-63
2021/09/10 13:20:49;;;;;;;8.80;7.07;;;;;;;;;;5113415;28;20251;-62
2021/09/10 13:23:17;;;;;;;10.10;7.20;;;;;;;;;;5114550;28;20203;-63
2021/09/10 13:25:46;;;;;;;9.37;7.40;;;;;;;;;;5114645;28;20239;-62
2021/09/10 13:28:14;;;;;;;7.23;6.43;;;;;;;;;;5116989;28;20229;-62
2021/09/10 13:30:42;;;;;;;10.67;7.60;;;;;;;;;;5113468;28;20202;-62
2021/09/10 13:33:10;;;;;;;8.20;7.23;;;;;;;;;;5115704;28;20201;-62
2021/09/10 13:35:38;;;;;;;7.57;6.77;;;;;;;;;;5119989;28;20300;-62
2021/09/10 13:38:06;;;;;;;7.87;7.17;;;;;;;;;;5120101;28;20252;-65
2021/09/10 13:40:34;;;;;;;8.63;6.90;;;;;;;;;;5121171;28;20205;-64
2021/09/10 13:43:03;;;;;;;7.80;6.60;;;;;;;;;;5120114;28;20276;-64
2021/09/10 13:45:31;;;;;;;8.60;6.47;;;;;;;;;;5120939;28;20224;-64
2021/09/10 13:48:00;;;;;;;10.53;7.70;;;;;;;;;;5108421;28;20224;-64
2021/09/10 13:50:28;;;;;;;9.13;6.80;;;;;;;;;;5116954;28;20565;-62
2021/09/10 13:52:56;;;;;;;8.80;7.43;;;;;;;;;;5116046;28;20204;-62
2021/09/10 13:55:24;;;;;;;10.90;8.47;;;;;;;;;;5118774;28;20250;-64
2021/09/10 13:57:52;;;;;;;10.37;7.37;;;;;;;;;;5118067;28;20206;-63
2021/09/10 14:00:22;;;;;;;9.83;7.30;;;;;;;;;;5111353;28;20230;-63
2021/09/10 14:02:49;;;;;;;8.30;7.33;;;;;;;;;;5115289;28;20200;-63
2021/09/10 14:05:18;;;;;;;7.80;6.73;;;;;;;;;;5107029;28;20311;-64
2021/09/10 14:07:46;;;;;;;11.20;7.10;;;;;;;;;;5120210;28;20223;-63
2021/09/10 14:10:14;;;;;;;9.70;7.00;;;;;;;;;;5106698;28;20278;-64
2021/09/10 14:12:42;;;;;;;7.70;6.90;;;;;;;;;;5105805;28;20285;-62
2021/09/10 14:15:14;;;;;;;7.83;6.80;;;;;;;;;;5119366;28;20248;-64
2021/09/10 14:17:44;;;;;;;11.67;7.20;;;;;;;;;;5119277;28;20202;-62
2021/09/10 14:20:12;;;;;;;9.93;7.07;;;;;;;;;;5120315;28;20232;-64
2021/09/10 14:22:40;;;;;;;8.10;7.30;;;;;;;;;;5113628;28;20202;-64
2021/09/10 14:25:09;;;;;;;10.70;7.30;;;;;;;;;;5112537;28;20327;-63
2021/09/10 14:27:37;;;;;;;8.47;6.40;;;;;;;;;;5119128;28;20208;-62
2021/09/10 14:30:06;;;;;;;7.77;6.27;;;;;;;;;;5109816;27;20255;-63
2021/09/10 14:32:34;;;;;;;8.60;6.83;;;;;;;;;;5122130;27;20582;-64
2021/09/10 14:35:04;;;;;;;8.33;6.73;;;;;;;;;;5122368;27;20754;-62
2021/09/10 14:37:32;;;;;;;9.47;8.00;;;;;;;;;;5119746;27;20229;-63
2021/09/10 14:40:00;;;;;;;7.90;7.10;;;;;;;;;;5125254;27;20760;-62
2021/09/10 14:42:28;;;;;;;10.17;7.27;;;;;;;;;;5127205;27;20288;-62